Time;durP1;ratioP1;P1;durP2;ratioP2;P2;SDS_P1;SDS_P2;PMS_P1;PMS_P2;Temp;Humidity;BMP_temperature;BMP_pressure;BME280_temperature;BME280_humidity;BME280_pressure;Samples;Min_cycle;Max_cycle;Signal;HPM_P1;HPM_P2
2021/11/19 00:00:45;;;;;;;45.97;24.67;;;;;;;3.47;83.36;99799.28;1772543;79;21387;-55
2021/11/19 00:03:12;;;;;;;38.53;23.07;;;;;;;3.41;83.36;99790.05;1785616;78;20969;-55
2021/11/19 00:05:40;;;;;;;43.03;23.03;;;;;;;3.38;83.46;99788.80;1786487;78;20953;-54
2021/11/19 00:08:07;;;;;;;43.30;22.93;;;;;;;3.38;83.50;99794.13;1783189;78;21454;-55
2021/11/19 00:10:34;;;;;;;37.03;22.10;;;;;;;3.37;83.59;99790.59;1783180;78;21452;-55
2021/11/19 00:13:00;;;;;;;40.93;22.57;;;;;;;3.36;83.68;99786.16;1786190;78;21990;-55
2021/11/19 00:15:27;;;;;;;43.90;21.83;;;;;;;3.40;83.87;99787.00;1783969;78;21479;-55
2021/11/19 00:17:54;;;;;;;38.13;22.13;;;;;;;3.40;83.85;99786.52;1784381;78;21388;-54
2021/11/19 00:20:27;;;;;;;37.97;22.97;;;;;;;3.43;83.97;99774.49;1782944;78;21191;-55
2021/11/19 00:22:51;;;;;;;41.17;24.60;;;;;;;3.46;84.02;99772.69;1784907;78;20918;-55
2021/11/19 00:25:17;;;;;;;38.13;24.87;;;;;;;3.46;84.09;99768.25;1789582;78;20898;-55
2021/11/19 00:27:43;;;;;;;36.63;22.60;;;;;;;3.48;84.13;99768.23;1755111;80;21424;-55
2021/11/19 00:30:12;;;;;;;39.70;22.20;;;;;;;3.49;84.10;99772.16;1789512;78;21365;-55
2021/11/19 00:32:39;;;;;;;33.50;21.07;;;;;;;3.51;84.07;99771.69;1771585;79;21192;-55
2021/11/19 00:35:07;;;;;;;33.57;20.33;;;;;;;3.52;84.16;99769.91;1769919;79;21081;-55
2021/11/19 00:37:34;;;;;;;33.47;21.27;;;;;;;3.52;84.26;99766.79;1769600;79;21026;-55
2021/11/19 00:40:05;;;;;;;33.63;19.73;;;;;;;3.55;84.35;99769.86;1772354;79;21076;-55
2021/11/19 00:42:32;;;;;;;34.67;19.43;;;;;;;3.57;84.48;99762.72;1764598;79;21732;-55
2021/11/19 00:45:00;;;;;;;32.23;19.37;;;;;;;3.62;84.52;99756.84;1769441;79;21546;-55
2021/11/19 00:47:26;;;;;;;32.03;19.30;;;;;;;3.64;84.48;99758.58;1753446;80;21724;-55
2021/11/19 00:49:53;;;;;;;36.13;21.37;;;;;;;3.65;84.35;99749.69;1751903;80;21037;-55
2021/11/19 00:52:20;;;;;;;33.50;20.70;;;;;;;3.64;84.36;99747.92;1752812;80;21612;-55
2021/11/19 00:54:47;;;;;;;37.97;20.77;;;;;;;3.64;84.31;99741.73;1757260;80;20918;-55
2021/11/19 00:57:15;;;;;;;32.13;17.50;;;;;;;3.63;84.27;99743.51;1753961;80;21409;-55
2021/11/19 00:59:42;;;;;;;33.60;18.53;;;;;;;3.63;84.18;99732.86;1752627;80;21044;-55
2021/11/19 01:02:17;;;;;;;31.53;17.87;;;;;;;3.62;84.23;99732.88;1771434;79;21068;-55
2021/11/19 01:04:44;;;;;;;30.65;16.42;;;;;;;3.61;84.35;99730.67;1766760;79;22345;-55
2021/11/19 01:07:12;;;;;;;28.60;15.63;;;;;;;3.62;84.34;99726.23;1753502;80;21827;-55
2021/11/19 01:09:46;;;;;;;30.03;17.87;;;;;;;3.63;84.29;99732.86;1755322;80;21688;-55
2021/11/19 01:12:16;;;;;;;30.40;18.23;;;;;;;3.64;84.33;99727.08;1750534;80;21104;-55
2021/11/19 01:14:51;;;;;;;28.50;18.63;;;;;;;3.64;84.44;99721.77;1753484;80;21271;-55
2021/11/19 01:17:23;;;;;;;32.57;19.00;;;;;;;3.65;84.37;99720.86;1768909;79;21465;-55
2021/11/19 01:20:01;;;;;;;32.03;18.37;;;;;;;3.64;84.30;99720.43;1768321;79;21046;-55
2021/11/19 01:22:31;;;;;;;30.67;17.53;;;;;;;3.64;84.25;99716.44;1744886;79;21087;-55
2021/11/19 01:24:58;;;;;;;25.93;15.60;;;;;;;3.63;84.21;99710.23;1753007;80;21439;-54
2021/11/19 01:27:24;;;;;;;24.70;14.60;;;;;;;3.63;84.18;99707.58;1769086;79;21099;-55
2021/11/19 01:29:51;;;;;;;23.83;15.57;;;;;;;3.63;84.29;99707.58;1772858;79;20922;-55
2021/11/19 01:32:24;;;;;;;27.10;16.30;;;;;;;3.65;84.28;99702.22;1744977;80;20930;-55
2021/11/19 01:35:08;;;;;;;24.60;15.23;;;;;;;3.67;84.31;99706.58;1770361;79;21487;-54
2021/11/19 01:37:52;;;;;;;;;;;;;;;3.70;84.35;99701.20;1771391;79;21109;-55
2021/11/19 01:40:24;;;;;;;27.10;16.10;;;;;;;3.70;84.28;99701.20;1765115;79;20276;-55
2021/11/19 01:43:05;;;;;;;28.83;17.10;;;;;;;3.71;84.26;99693.64;1770959;79;20930;-56
2021/11/19 01:45:39;;;;;;;27.37;17.67;;;;;;;3.70;84.18;99696.34;1739654;80;21061;-55
2021/11/19 01:48:08;;;;;;;28.10;16.37;;;;;;;3.70;84.16;99692.34;1762166;79;21456;-55
2021/11/19 01:50:53;;;;;;;27.07;15.97;;;;;;;3.68;84.10;99695.03;1764107;79;21496;-55
2021/11/19 01:53:43;;;;;;;22.37;14.43;;;;;;;3.66;84.14;99690.19;1766290;79;21053;-54
2021/11/19 01:56:20;;;;;;;18.47;13.30;;;;;;;3.67;84.14;99680.41;1739372;80;21123;-56
2021/11/19 01:58:51;;;;;;;20.53;12.97;;;;;;;3.67;84.20;99682.63;1765431;79;21447;-57
2021/11/19 02:01:37;;;;;;;21.20;13.23;;;;;;;3.68;84.15;99675.06;1767041;79;21893;-57
2021/11/19 02:04:09;;;;;;;22.17;13.13;;;;;;;3.70;84.24;99679.03;1758397;79;21124;-57
2021/11/19 02:06:43;;;;;;;20.03;12.97;;;;;;;3.70;84.23;99673.25;1765574;79;21474;-57
2021/11/19 02:09:35;;;;;;;20.63;13.97;;;;;;;3.74;84.35;99668.27;1764036;79;21054;-57
2021/11/19 02:12:32;;;;;;;19.57;13.33;;;;;;;3.80;84.37;99664.61;1737106;79;20913;-56
2021/11/19 02:15:12;;;;;;;21.50;13.50;;;;;;;3.83;84.18;99665.01;1774317;79;21817;-57
2021/11/19 02:17:39;;;;;;;24.17;14.97;;;;;;;3.80;84.03;99669.94;1764647;79;21739;-56
2021/11/19 02:20:14;;;;;;;22.27;14.07;;;;;;;3.77;84.02;99664.67;1771307;79;20966;-57
2021/11/19 02:22:49;;;;;;;18.90;12.35;;;;;;;3.75;84.02;99662.48;1737211;79;25674;-57
2021/11/19 02:25:31;;;;;;;21.87;13.72;;;;;;;3.73;83.98;99659.89;1766487;79;21104;-57
2021/11/19 02:28:03;;;;;;;18.53;11.97;;;;;;;3.73;83.97;99667.00;1767594;79;21092;-57
2021/11/19 02:30:35;;;;;;;19.07;11.50;;;;;;;3.74;84.11;99670.92;1766467;79;21023;-57
2021/11/19 02:33:06;;;;;;;16.13;11.53;;;;;;;3.76;84.06;99674.44;1764516;79;21353;-56
2021/11/19 02:35:56;;;;;;;17.03;10.20;;;;;;;3.80;84.03;99669.94;1761103;79;21304;-57
2021/11/19 02:38:32;;;;;;;16.90;10.23;;;;;;;3.82;84.03;99668.58;1762766;79;21068;-57
2021/11/19 02:41:00;;;;;;;19.43;10.93;;;;;;;3.84;83.93;99666.28;1768558;79;21826;-57
2021/11/19 02:43:42;;;;;;;16.63;11.00;;;;;;;3.84;83.83;99657.41;1764152;80;21035;-54
2021/11/19 02:46:15;;;;;;;21.13;12.10;;;;;;;3.82;83.77;99655.27;1764372;79;21319;-55
2021/11/19 02:48:42;;;;;;;19.55;12.68;;;;;;;3.82;83.74;99656.14;1739575;80;21314;-55
2021/11/19 02:51:10;;;;;;;21.47;13.30;;;;;;;3.80;83.67;99659.29;1739914;79;21538;-55
2021/11/19 02:53:38;;;;;;;16.57;11.77;;;;;;;3.78;83.63;99660.65;1765723;79;21096;-55
2021/11/19 02:56:05;;;;;;;18.23;12.07;;;;;;;3.78;83.61;99662.44;1768973;79;21088;-55
2021/11/19 02:58:36;;;;;;;19.63;10.57;;;;;;;3.74;83.66;99654.95;1764901;79;22218;-57
2021/11/19 03:01:14;;;;;;;19.73;10.97;;;;;;;3.75;83.71;99661.16;1766655;79;20934;-55
2021/11/19 03:03:44;;;;;;;15.90;11.50;;;;;;;3.75;83.70;99662.48;1765723;79;20930;-55
2021/11/19 03:06:10;;;;;;;15.77;10.03;;;;;;;3.76;83.74;99654.47;1772401;79;21097;-55
2021/11/19 03:08:36;;;;;;;19.87;11.43;;;;;;;3.76;83.73;99649.15;1768239;78;20913;-55
2021/11/19 03:11:03;;;;;;;15.90;11.13;;;;;;;3.78;83.68;99642.47;1771606;79;20984;-55
2021/11/19 03:13:33;;;;;;;24.30;11.77;;;;;;;3.79;83.66;99645.09;1773388;79;20982;-55
2021/11/19 03:16:00;;;;;;;18.83;13.67;;;;;;;3.79;83.52;99634.45;1792300;78;20937;-55
2021/11/19 03:18:28;;;;;;;17.17;11.50;;;;;;;3.76;83.42;99638.50;1775460;79;21764;-54
2021/11/19 03:20:58;;;;;;;17.33;11.53;;;;;;;3.72;83.42;99622.20;1766357;79;21103;-55
2021/11/19 03:23:25;;;;;;;18.00;10.83;;;;;;;3.71;83.42;99629.75;1771517;79;20953;-54
2021/11/19 03:25:51;;;;;;;18.53;13.13;;;;;;;3.68;83.45;99624.48;1750294;80;20918;-55
2021/11/19 03:28:21;;;;;;;19.57;12.87;;;;;;;3.69;83.46;99622.25;1772294;79;21386;-55
2021/11/19 03:30:50;;;;;;;21.63;12.43;;;;;;;3.68;83.48;99614.30;1748577;80;22336;-55
2021/11/19 03:33:20;;;;;;;17.40;11.70;;;;;;;3.68;83.42;99612.96;1772851;79;20880;-55
2021/11/19 03:35:47;;;;;;;16.80;10.53;;;;;;;3.67;83.45;99614.75;1777172;79;20946;-55
2021/11/19 03:38:14;;;;;;;16.63;11.33;;;;;;;3.67;83.45;99616.53;1769032;79;20926;-55
2021/11/19 03:40:43;;;;;;;17.47;12.03;;;;;;;3.66;83.49;99624.97;1770672;79;20970;-55
2021/11/19 03:43:14;;;;;;;18.57;12.00;;;;;;;3.67;83.48;99608.55;1770535;79;21094;-55
2021/11/19 03:45:46;;;;;;;17.03;12.10;;;;;;;3.67;83.61;99610.75;1767480;79;21616;-55
2021/11/19 03:48:12;;;;;;;21.70;13.03;;;;;;;3.67;83.56;99610.75;1763644;79;21068;-55
2021/11/19 03:50:47;;;;;;;22.83;12.47;;;;;;;3.67;83.51;99601.89;1762517;79;21061;-55
2021/11/19 03:53:14;;;;;;;18.80;11.63;;;;;;;3.65;83.47;99597.96;1761298;79;21025;-55
2021/11/19 03:55:46;;;;;;;20.40;10.83;;;;;;;3.66;83.48;99590.36;1764878;79;21947;-55
2021/11/19 03:58:13;;;;;;;16.97;11.07;;;;;;;3.68;83.49;99593.00;1763047;79;21402;-55
2021/11/19 04:00:44;;;;;;;19.53;11.60;;;;;;;3.69;83.53;99580.11;1763345;79;20926;-55
2021/11/19 04:03:12;;;;;;;14.83;10.37;;;;;;;3.71;83.58;99575.18;1779537;79;20917;-55
2021/11/19 04:05:39;;;;;;;17.77;10.97;;;;;;;3.74;83.58;99576.42;1727098;81;20938;-55
2021/11/19 04:08:06;;;;;;;17.93;11.53;;;;;;;3.75;83.55;99574.19;1776938;79;21071;-58
2021/11/19 04:10:35;;;;;;;17.00;10.33;;;;;;;3.78;83.51;99579.45;1772576;79;21049;-57
2021/11/19 04:13:02;;;;;;;17.90;11.50;;;;;;;3.79;83.48;99569.67;1773086;79;21243;-58
2021/11/19 04:15:36;;;;;;;16.93;11.50;;;;;;;3.83;83.53;99555.84;1747389;80;21001;-58
2021/11/19 04:18:05;;;;;;;16.40;10.67;;;;;;;3.84;83.45;99552.24;1744688;80;21057;-58
2021/11/19 04:20:31;;;;;;;19.00;11.10;;;;;;;3.83;83.37;99547.38;1773743;79;21462;-58
2021/11/19 04:22:58;;;;;;;18.37;10.67;;;;;;;3.83;83.33;99545.20;1751230;80;21072;-57
2021/11/19 04:25:26;;;;;;;17.67;10.70;;;;;;;3.83;83.25;99551.85;1746701;79;21740;-58
2021/11/19 04:27:53;;;;;;;18.23;10.33;;;;;;;3.82;83.13;99546.11;1778696;79;22178;-58
2021/11/19 04:30:31;;;;;;;17.10;10.58;;;;;;;3.78;83.15;99540.84;1770871;79;21105;-58
2021/11/19 04:32:59;;;;;;;12.97;8.90;;;;;;;3.78;83.10;99537.30;1773252;79;21129;-57
2021/11/19 04:35:27;;;;;;;18.03;9.80;;;;;;;3.76;83.03;99522.69;1765848;79;21490;-58
2021/11/19 04:37:55;;;;;;;18.13;9.57;;;;;;;3.75;82.92;99514.73;1750867;79;21069;-58
2021/11/19 04:40:22;;;;;;;12.97;10.23;;;;;;;3.73;82.82;99513.92;1762118;79;21060;-58
2021/11/19 04:42:48;;;;;;;13.77;9.87;;;;;;;3.71;82.87;99517.07;1761902;79;21115;-58
2021/11/19 04:45:20;;;;;;;16.23;10.97;;;;;;;3.71;82.79;99529.05;1763680;79;21228;-57
2021/11/19 04:47:48;;;;;;;12.97;8.53;;;;;;;3.68;82.74;99514.47;1753418;79;21467;-57
2021/11/19 04:50:16;;;;;;;21.47;11.90;;;;;;;3.67;82.71;99524.24;1745893;80;20999;-58
2021/11/19 04:52:44;;;;;;;16.37;11.13;;;;;;;3.64;82.61;99509.70;1748690;81;20890;-58
2021/11/19 04:55:11;;;;;;;15.40;9.17;;;;;;;3.60;82.62;99523.98;1746198;80;21721;-57
2021/11/19 04:57:38;;;;;;;15.53;8.83;;;;;;;3.59;82.59;99520.89;1717048;80;21477;-57
2021/11/19 05:00:10;;;;;;;15.83;8.97;;;;;;;3.57;82.65;99524.52;1743825;80;21012;-57
2021/11/19 05:02:39;;;;;;;;;;;;;;;3.56;82.67;99519.66;1747234;80;20956;-57
2021/11/19 05:05:23;;;;;;;13.27;8.27;;;;;;;3.56;82.77;99518.33;1746980;80;20225;-58
2021/11/19 05:07:50;;;;;;;14.60;8.97;;;;;;;3.55;82.84;99520.56;1741385;80;21050;-57
2021/11/19 05:10:17;;;;;;;16.87;8.53;;;;;;;3.54;82.82;99517.48;1743809;80;21702;-58
2021/11/19 05:12:48;;;;;;;14.47;9.43;;;;;;;3.57;82.90;99512.55;1747746;80;21096;-57
2021/11/19 05:15:14;;;;;;;15.67;9.37;;;;;;;3.59;82.82;99502.27;1748881;80;21064;-55
2021/11/19 05:17:41;;;;;;;15.37;11.67;;;;;;;3.60;82.83;99507.13;1725458;81;21108;-55
2021/11/19 05:20:10;;;;;;;18.47;10.43;;;;;;;3.60;82.85;99505.80;1746938;80;21028;-55
2021/11/19 05:22:36;;;;;;;15.83;10.10;;;;;;;3.61;82.79;99506.22;1743688;80;21104;-56
2021/11/19 05:25:06;;;;;;;17.03;9.83;;;;;;;3.60;82.80;99504.47;1744562;80;21053;-55
2021/11/19 05:27:32;;;;;;;16.67;10.30;;;;;;;3.59;82.73;99504.92;1746506;80;21518;-55
2021/11/19 05:29:59;;;;;;;14.20;8.50;;;;;;;3.60;82.72;99504.47;1751337;81;21509;-55
2021/11/19 05:32:28;;;;;;;14.07;8.63;;;;;;;3.61;82.71;99508.43;1746895;80;21060;-55
2021/11/19 05:34:54;;;;;;;15.07;9.10;;;;;;;3.62;82.75;99506.64;1745743;81;21152;-55
2021/11/19 05:37:21;;;;;;;14.63;9.60;;;;;;;3.63;82.77;99494.64;1745225;80;21029;-55
2021/11/19 05:39:47;;;;;;;12.93;9.70;;;;;;;3.66;82.74;99501.20;1747651;80;22584;-55
2021/11/19 05:42:14;;;;;;;19.47;11.50;;;;;;;3.68;82.71;99508.70;1742634;80;21525;-55
2021/11/19 05:44:42;;;;;;;14.97;9.97;;;;;;;3.70;82.71;99507.34;1744859;80;21750;-58
2021/11/19 05:47:19;;;;;;;13.83;10.40;;;;;;;3.69;82.63;99500.25;1741606;80;21592;-58
2021/11/19 05:49:47;;;;;;;18.07;11.13;;;;;;;3.68;82.63;99502.49;1756546;79;21088;-58
2021/11/19 05:52:13;;;;;;;19.83;11.83;;;;;;;3.65;82.60;99495.48;1761603;79;21425;-58
2021/11/19 05:54:40;;;;;;;19.67;12.03;;;;;;;3.64;82.52;99496.84;1763732;79;21068;-55
2021/11/19 05:57:09;;;;;;;19.07;11.53;;;;;;;3.63;82.51;99499.08;1731182;79;21096;-55
2021/11/19 05:59:35;;;;;;;15.47;10.80;;;;;;;3.61;82.53;99488.47;1733808;80;21908;-56
2021/11/19 06:02:16;;;;;;;14.10;10.43;;;;;;;3.60;82.61;99489.83;1763582;79;21076;-56
2021/11/19 06:04:55;;;;;;;18.10;10.80;;;;;;;3.59;82.66;99482.30;1760758;79;21361;-56
2021/11/19 06:07:25;;;;;;;15.57;10.93;;;;;;;3.59;82.71;99482.75;1762434;79;20860;-56
2021/11/19 06:09:52;;;;;;;20.20;10.53;;;;;;;3.60;82.81;99480.52;1767946;79;21384;-55
2021/11/19 06:12:23;;;;;;;24.40;13.10;;;;;;;3.59;82.89;99467.66;1766253;79;21700;-56
2021/11/19 06:14:53;;;;;;;23.07;13.47;;;;;;;3.61;82.90;99468.96;1764352;79;20919;-56
2021/11/19 06:17:39;;;;;;;22.17;13.63;;;;;;;3.60;82.91;99472.53;1765541;79;20965;-55
2021/11/19 06:20:17;;;;;;;20.43;11.22;;;;;;;3.59;82.95;99466.78;1761257;79;21898;-56
2021/11/19 06:22:52;;;;;;;16.20;10.07;;;;;;;3.61;82.99;99467.63;1726653;80;21112;-56
2021/11/19 06:25:23;;;;;;;18.20;11.30;;;;;;;3.59;83.07;99461.01;1761529;79;21330;-56
2021/11/19 06:27:52;;;;;;;17.93;11.93;;;;;;;3.62;83.18;99454.75;1762538;79;21563;-56
2021/11/19 06:30:19;;;;;;;20.00;10.83;;;;;;;3.64;83.23;99451.14;1757274;79;21049;-56
2021/11/19 06:32:45;;;;;;;14.60;10.00;;;;;;;3.64;83.27;99444.48;1788767;78;21060;-55
2021/11/19 06:35:12;;;;;;;18.03;11.70;;;;;;;3.64;83.36;99433.84;1757759;80;21073;-56
2021/11/19 06:37:39;;;;;;;15.47;10.77;;;;;;;3.66;83.42;99431.98;1756211;80;21175;-55
2021/11/19 06:40:17;;;;;;;18.73;10.90;;;;;;;3.65;83.42;99428.94;1751847;80;22207;-56
2021/11/19 06:43:04;;;;;;;11.07;9.00;;;;;;;3.65;83.44;99433.39;1756260;79;21078;-56
2021/11/19 06:45:49;;;;;;;11.97;9.40;;;;;;;3.65;83.49;99426.73;1756377;80;21274;-55
2021/11/19 06:48:17;;;;;;;13.07;9.10;;;;;;;3.63;83.62;99418.78;1757722;80;21105;-58
2021/11/19 06:51:06;;;;;;;11.37;8.87;;;;;;;3.63;83.74;99416.13;1758112;80;21053;-59
2021/11/19 06:53:52;;;;;;;13.20;9.20;;;;;;;3.67;83.92;99408.91;1757688;80;21049;-58
2021/11/19 06:56:34;;;;;;;12.07;9.77;;;;;;;3.68;83.96;99408.88;1757061;79;21077;-56
2021/11/19 06:59:04;;;;;;;11.17;10.00;;;;;;;3.70;84.05;99402.19;1756879;80;21481;-56
2021/11/19 07:01:31;;;;;;;14.13;10.13;;;;;;;3.72;84.13;99403.03;1762232;80;21036;-56
2021/11/19 07:03:57;;;;;;;13.07;9.77;;;;;;;3.72;84.18;99383.06;1757514;80;22090;-56
2021/11/19 07:06:24;;;;;;;13.23;9.60;;;;;;;3.72;84.17;99383.94;1755407;80;21126;-56
2021/11/19 07:08:50;;;;;;;13.30;9.23;;;;;;;3.73;84.22;99383.03;1755396;80;21504;-56
2021/11/19 07:11:20;;;;;;;11.90;8.63;;;;;;;3.76;84.31;99375.40;1754204;80;22456;-56
2021/11/19 07:13:49;;;;;;;9.00;7.77;;;;;;;3.79;84.40;99372.66;1765066;80;20926;-56
2021/11/19 07:16:17;;;;;;;11.20;8.73;;;;;;;3.83;84.45;99369.48;1760879;80;21049;-56
2021/11/19 07:18:44;;;;;;;14.90;9.43;;;;;;;3.85;84.48;99376.94;1757640;80;21429;-56
2021/11/19 07:21:11;;;;;;;15.47;10.53;;;;;;;3.86;84.55;99368.04;1758726;79;22425;-56
2021/11/19 07:23:37;;;;;;;15.20;10.30;;;;;;;3.87;84.58;99365.34;1752903;80;21495;-56
2021/11/19 07:26:04;;;;;;;15.60;11.77;;;;;;;3.90;84.68;99359.95;1753183;80;21496;-56
2021/11/19 07:28:31;;;;;;;16.03;10.80;;;;;;;3.93;84.65;99364.29;1757454;79;21837;-56
2021/11/19 07:31:09;;;;;;;16.97;10.30;;;;;;;3.94;84.66;99356.27;1749161;79;21483;-56
2021/11/19 07:33:37;;;;;;;14.90;11.17;;;;;;;3.96;84.70;99348.23;1755967;80;21125;-56
2021/11/19 07:36:17;;;;;;;16.63;11.03;;;;;;;3.97;84.75;99345.54;1754185;80;21089;-56
2021/11/19 07:38:48;;;;;;;17.07;11.47;;;;;;;3.99;84.83;99339.72;1666454;80;21399;-56
2021/11/19 07:41:34;;;;;;;14.13;10.50;;;;;;;4.03;84.92;99339.16;1757024;80;21183;-56
2021/11/19 07:44:04;;;;;;;13.90;10.20;;;;;;;4.06;84.97;99343.08;1753989;79;21064;-57
2021/11/19 07:46:32;;;;;;;15.33;10.87;;;;;;;4.09;85.04;99339.84;1760081;79;20926;-56
2021/11/19 07:49:00;;;;;;;16.53;12.67;;;;;;;4.10;85.07;99339.39;1755262;80;21525;-56
2021/11/19 07:51:33;;;;;;;13.53;10.73;;;;;;;4.11;85.08;99339.35;1758487;80;21087;-56
2021/11/19 07:54:00;;;;;;;12.70;9.53;;;;;;;4.13;85.12;99333.98;1758462;80;22222;-56
2021/11/19 07:56:31;;;;;;;15.53;9.73;;;;;;;4.15;85.18;99330.83;1788319;78;21288;-56
2021/11/19 07:59:04;;;;;;;13.40;11.10;;;;;;;4.18;85.23;99332.05;1761399;79;21056;-57
2021/11/19 08:01:31;;;;;;;14.63;10.87;;;;;;;4.20;85.26;99324.89;1766569;79;21188;-58
2021/11/19 08:03:57;;;;;;;18.87;12.03;;;;;;;4.23;85.26;99321.28;1766822;79;21619;-58
2021/11/19 08:06:27;;;;;;;15.57;10.50;;;;;;;4.25;85.29;99326.98;1770691;79;21104;-57
2021/11/19 08:08:55;;;;;;;15.83;11.33;;;;;;;4.27;85.31;99321.13;1776077;79;20898;-58
2021/11/19 08:11:23;;;;;;;13.87;10.40;;;;;;;4.29;85.33;99317.97;1766683;79;21044;-58
2021/11/19 08:13:50;;;;;;;17.30;11.60;;;;;;;4.33;85.34;99320.09;1771091;79;21064;-58
2021/11/19 08:16:16;;;;;;;14.63;11.00;;;;;;;4.34;85.31;99316.02;1769951;79;21288;-58
2021/11/19 08:19:00;;;;;;;14.73;10.43;;;;;;;4.35;85.31;99309.77;1766995;79;21134;-58
2021/11/19 08:21:27;;;;;;;18.87;11.63;;;;;;;4.39;85.37;99302.58;1744288;79;20977;-58
2021/11/19 08:24:03;;;;;;;14.33;11.17;;;;;;;4.40;85.37;99302.53;1784612;78;21012;-58
2021/11/19 08:26:41;;;;;;;16.90;11.83;;;;;;;4.40;85.37;99293.21;1766996;80;21143;-58
2021/11/19 08:29:12;;;;;;;15.47;10.50;;;;;;;4.41;85.38;99299.41;1767341;79;21498;-58
2021/11/19 08:31:39;;;;;;;13.57;11.23;;;;;;;4.43;85.40;99289.55;1770496;79;21075;-58
2021/11/19 08:34:07;;;;;;;16.57;10.93;;;;;;;4.43;85.43;99285.09;1765579;79;21140;-58
2021/11/19 08:36:34;;;;;;;18.67;10.37;;;;;;;4.47;85.49;99275.23;1779625;78;21037;-58
2021/11/19 08:39:01;;;;;;;14.70;9.63;;;;;;;4.49;85.51;99272.06;1771115;79;21084;-58
2021/11/19 08:41:28;;;;;;;13.37;10.30;;;;;;;4.52;85.58;99266.62;1773333;79;21040;-58
2021/11/19 08:43:57;;;;;;;9.20;7.63;;;;;;;4.55;85.61;99259.87;1783528;78;21138;-58
2021/11/19 08:46:28;;;;;;;14.50;11.20;;;;;;;4.59;85.63;99257.53;1783116;78;21499;-58
2021/11/19 08:48:56;;;;;;;11.50;8.50;;;;;;;4.61;85.63;99249.00;1762323;79;20976;-57
2021/11/19 08:51:25;;;;;;;14.47;10.33;;;;;;;4.62;85.63;99248.55;1773113;79;21131;-58
2021/11/19 08:53:54;;;;;;;12.67;9.10;;;;;;;4.63;85.62;99239.63;1758173;80;20923;-58
2021/11/19 08:56:21;;;;;;;12.23;9.07;;;;;;;4.64;85.65;99234.25;1782708;78;22108;-58
2021/11/19 08:58:48;;;;;;;8.97;7.53;;;;;;;4.67;85.66;99228.83;1783083;78;20930;-58
2021/11/19 09:01:16;;;;;;;11.73;9.23;;;;;;;4.70;85.66;99231.84;1784613;79;20925;-58
2021/11/19 09:03:42;;;;;;;10.17;7.87;;;;;;;4.73;85.68;99218.41;1780428;78;21076;-57
2021/11/19 09:06:10;;;;;;;11.07;7.80;;;;;;;4.75;85.72;99219.25;1785446;78;20950;-58
2021/11/19 09:08:37;;;;;;;10.57;8.00;;;;;;;4.77;85.73;99212.92;1760843;80;21109;-58
2021/11/19 09:11:04;;;;;;;11.57;9.43;;;;;;;4.81;85.74;99205.24;1759707;80;21019;-56
2021/11/19 09:13:32;;;;;;;9.60;8.00;;;;;;;4.84;85.73;99202.48;1760481;79;20894;-56
2021/11/19 09:16:01;;;;;;;11.27;10.03;;;;;;;4.87;85.74;99202.81;1759865;80;20961;-56
2021/11/19 09:18:48;;;;;;;15.33;11.13;;;;;;;4.88;85.73;99197.90;1732792;80;20965;-55
2021/11/19 09:21:31;;;;;;;12.30;10.47;;;;;;;4.88;85.72;99196.11;1760214;79;21085;-56
2021/11/19 09:24:13;;;;;;;12.87;10.40;;;;;;;4.90;85.67;99197.39;1757731;80;20890;-56
2021/11/19 09:27:03;;;;;;;12.67;9.40;;;;;;;4.92;85.70;99190.22;1790415;78;20939;-56
2021/11/19 09:29:37;;;;;;;15.20;8.90;;;;;;;4.93;85.74;99178.14;1753762;80;20957;-56
2021/11/19 09:32:05;;;;;;;12.18;10.05;;;;;;;4.98;85.78;99180.66;1758972;80;20910;-58
2021/11/19 09:34:36;;;;;;;13.27;10.43;;;;;;;4.99;85.74;99171.73;1766665;79;21775;-58
2021/11/19 09:37:04;;;;;;;12.03;9.17;;;;;;;5.02;85.77;99171.61;1789659;79;21372;-58
2021/11/19 09:39:30;;;;;;;15.37;12.00;;;;;;;5.03;85.78;99169.36;1779427;78;21527;-58
2021/11/19 09:42:17;;;;;;;15.47;11.43;;;;;;;5.03;85.77;99160.02;1747562;80;21891;-58
2021/11/19 09:45:13;;;;;;;15.50;11.17;;;;;;;5.05;85.83;99152.84;1740819;80;21504;-57
2021/11/19 09:51:05;;;;;;;10.83;8.73;;;;;;;5.11;85.84;99144.61;1763151;79;22378;-57
2021/11/19 09:55:05;;;;;;;10.30;8.30;;;;;;;5.13;85.91;99130.77;1850109;74;22496;-57
2021/11/19 09:58:17;;;;;;;8.67;7.67;;;;;;;5.11;85.94;99131.27;1841160;75;21095;-56
2021/11/19 10:01:29;;;;;;;9.50;8.50;;;;;;;5.16;85.93;99120.45;1832682;75;21069;-56
2021/11/19 10:04:13;;;;;;;7.87;6.90;;;;;;;5.19;85.95;99109.69;1836742;75;21294;-56
2021/11/19 10:06:56;;;;;;;10.32;8.23;;;;;;;5.21;85.93;99107.34;1835606;75;20898;-57
2021/11/19 10:09:42;;;;;;;9.83;6.87;;;;;;;5.22;85.87;99093.08;1847856;75;20902;-56
2021/11/19 10:12:19;;;;;;;9.33;6.90;;;;;;;5.24;85.91;99094.36;1847628;75;20944;-56
2021/11/19 10:15:19;;;;;;;9.53;6.07;;;;;;;5.27;85.97;99088.92;1831238;75;22223;-56
2021/11/19 10:18:07;;;;;;;10.67;7.27;;;;;;;5.28;85.93;99083.50;1836452;75;20957;-56
2021/11/19 10:20:39;;;;;;;6.40;5.80;;;;;;;5.30;85.96;99082.98;1832568;76;21715;-56
2021/11/19 10:23:16;;;;;;;10.83;5.93;;;;;;;5.33;85.93;99078.01;1836853;75;21076;-56
2021/11/19 10:26:04;;;;;;;10.53;7.77;;;;;;;5.35;85.91;99073.49;1843129;75;20881;-57
2021/11/19 10:28:46;;;;;;;14.70;7.63;;;;;;;5.38;85.93;99065.81;1832647;75;21263;-56
2021/11/19 10:31:18;;;;;;;8.03;6.93;;;;;;;5.41;85.95;99063.03;1832805;75;21341;-57
2021/11/19 10:34:18;;;;;;;8.43;7.17;;;;;;;5.46;85.99;99061.05;1825503;76;20892;-56
2021/11/19 10:37:40;;;;;;;9.30;8.00;;;;;;;5.47;85.91;99058.33;1828876;76;21370;-56
2021/11/19 10:40:56;;;;;;;9.23;7.73;;;;;;;5.48;85.87;99052.06;1824692;76;20940;-56
2021/11/19 10:43:52;;;;;;;;;;;;;;;5.48;85.93;99040.52;1749757;79;22508;-55
2021/11/19 10:46:44;;;;;;;10.08;7.45;;;;;;;5.49;85.92;99032.45;1784612;79;28187;-56
2021/11/19 10:49:22;;;;;;;7.90;6.90;;;;;;;5.49;85.95;99034.25;1782395;79;21051;-56
2021/11/19 10:52:17;;;;;;;8.00;5.80;;;;;;;5.51;86.06;99032.40;1781665;79;21056;-56
2021/11/19 10:55:21;;;;;;;6.00;5.47;;;;;;;5.54;86.19;99022.45;1784809;77;21088;-56
2021/11/19 10:58:10;;;;;;;7.13;3.73;;;;;;;5.59;86.11;99027.63;1779855;79;21075;-57
2021/11/19 11:01:01;;;;;;;5.17;3.27;;;;;;;5.60;86.12;99015.55;1767706;78;21515;-57
2021/11/19 11:03:35;;;;;;;4.70;4.23;;;;;;;5.64;86.12;99009.61;1770026;78;21756;-57
2021/11/19 11:06:07;;;;;;;6.20;3.63;;;;;;;5.66;86.09;99005.09;1768826;78;21412;-58
2021/11/19 11:08:38;;;;;;;4.40;3.40;;;;;;;5.68;86.08;99005.90;1770013;78;20907;-57
2021/11/19 11:11:13;;;;;;;7.67;3.73;;;;;;;;;;1769138;78;21098;-57
2021/11/19 11:13:44;;;;;;;5.07;2.97;;;;;;;5.71;86.07;99004.42;1770286;78;20890;-57
2021/11/19 11:16:25;;;;;;;4.43;2.70;;;;;;;5.75;86.07;99006.52;1773111;78;20902;-57
2021/11/19 11:19:12;;;;;;;6.10;3.43;;;;;;;5.76;86.12;99001.12;1772084;78;20949;-57
2021/11/19 11:21:56;;;;;;;7.37;2.87;;;;;;;5.79;86.13;98998.30;1770559;78;21088;-57
2021/11/19 11:28:04;;;;;;;3.50;3.10;;;;;;;5.90;86.19;98984.55;1775520;78;22615;-56
2021/11/19 11:30:57;;;;;;;4.70;3.50;;;;;;;5.87;86.21;98990.00;1745070;80;20989;-57
2021/11/19 11:33:30;;;;;;;4.30;3.23;;;;;;;5.89;86.13;98988.15;1727585;82;21455;-57
2021/11/19 11:36:13;;;;;;;4.55;2.20;;;;;;;5.89;86.03;98989.02;1724542;82;20910;-57
2021/11/19 11:39:12;;;;;;;2.07;1.87;;;;;;;5.88;85.97;98987.28;1709248;82;21974;-58
2021/11/19 11:42:02;;;;;;;4.50;2.47;;;;;;;5.87;86.03;98988.17;1729200;82;20924;-58
2021/11/19 11:44:46;;;;;;;2.73;1.80;;;;;;;5.86;86.08;98985.13;1725436;82;20957;-57
2021/11/19 11:47:54;;;;;;;1.85;1.50;;;;;;;5.86;86.09;98986.46;1728842;82;21123;-58
2021/11/19 11:50:42;;;;;;;3.13;1.83;;;;;;;5.85;86.12;98983.38;1730850;82;20875;-58
2021/11/19 11:53:14;;;;;;;3.17;1.70;;;;;;;5.86;86.20;98977.11;1687587;80;20919;-58
2021/11/19 11:56:25;;;;;;;1.60;1.27;;;;;;;5.89;86.26;98982.80;1725840;82;20911;-57
2021/11/19 11:59:08;;;;;;;2.10;1.40;;;;;;;5.89;86.29;98972.99;1725312;82;20955;-58
2021/11/19 12:01:56;;;;;;;2.80;1.20;;;;;;;5.90;86.31;98978.74;1725910;82;21462;-58
2021/11/19 12:04:31;;;;;;;1.87;1.20;;;;;;;5.93;86.33;98973.28;1729746;82;20901;-58
2021/11/19 12:07:13;;;;;;;3.10;1.07;;;;;;;5.95;86.38;98977.23;1725242;82;20875;-58
2021/11/19 12:09:51;;;;;;;1.60;1.10;;;;;;;5.97;86.46;98982.89;1722617;82;20938;-58